sensor_id;sensor_type;location;lat;lon;timestamp;P1;durP1;ratioP1;P2;durP2;ratioP2
35128;SDS011;21301;43.626;10.580;2023-06-26T00:02:05;6.95;;;2.90;;
35128;SDS011;21301;43.626;10.580;2023-06-26T00:04:31;8.38;;;3.10;;
35128;SDS011;21301;43.626;10.580;2023-06-26T00:06:57;8.63;;;2.75;;
35128;SDS011;21301;43.626;10.580;2023-06-26T00:09:22;7.05;;;2.90;;
35128;SDS011;21301;43.626;10.580;2023-06-26T00:11:48;5.95;;;2.08;;
35128;SDS011;21301;43.626;10.580;2023-06-26T00:14:14;5.57;;;2.80;;
35128;SDS011;21301;43.626;10.580;2023-06-26T00:16:40;7.65;;;2.90;;
35128;SDS011;21301;43.626;10.580;2023-06-26T00:19:07;6.88;;;2.65;;
35128;SDS011;21301;43.626;10.580;2023-06-26T00:21:33;5.38;;;2.45;;
35128;SDS011;21301;43.626;10.580;2023-06-26T00:23:59;5.40;;;2.58;;
35128;SDS011;21301;43.626;10.580;2023-06-26T00:26:25;8.93;;;2.63;;
35128;SDS011;21301;43.626;10.580;2023-06-26T00:28:52;5.75;;;2.42;;
35128;SDS011;21301;43.626;10.580;2023-06-26T00:31:19;5.03;;;2.45;;
35128;SDS011;21301;43.626;10.580;2023-06-26T00:33:44;5.07;;;2.58;;
35128;SDS011;21301;43.626;10.580;2023-06-26T00:36:10;4.47;;;2.20;;
35128;SDS011;21301;43.626;10.580;2023-06-26T00:38:36;5.15;;;2.60;;
35128;SDS011;21301;43.626;10.580;2023-06-26T00:41:05;5.45;;;2.55;;
35128;SDS011;21301;43.626;10.580;2023-06-26T00:43:37;14.10;;;2.92;;
35128;SDS011;21301;43.626;10.580;2023-06-26T00:46:09;7.20;;;2.55;;
35128;SDS011;21301;43.626;10.580;2023-06-26T00:48:37;4.57;;;2.70;;
35128;SDS011;21301;43.626;10.580;2023-06-26T00:51:05;6.78;;;2.60;;
35128;SDS011;21301;43.626;10.580;2023-06-26T00:53:33;7.10;;;2.80;;
35128;SDS011;21301;43.626;10.580;2023-06-26T00:56:00;4.25;;;2.20;;
35128;SDS011;21301;43.626;10.580;2023-06-26T00:58:28;4.57;;;2.33;;
35128;SDS011;21301;43.626;10.580;2023-06-26T01:00:56;5.57;;;2.22;;
35128;SDS011;21301;43.626;10.580;2023-06-26T01:03:22;4.22;;;2.20;;
35128;SDS011;21301;43.626;10.580;2023-06-26T01:05:54;4.85;;;2.88;;
35128;SDS011;21301;43.626;10.580;2023-06-26T01:08:23;4.65;;;2.28;;
35128;SDS011;21301;43.626;10.580;2023-06-26T01:10:50;4.95;;;1.98;;
35128;SDS011;21301;43.626;10.580;2023-06-26T01:13:17;7.43;;;2.67;;
35128;SDS011;21301;43.626;10.580;2023-06-26T01:15:47;6.80;;;3.10;;
35128;SDS011;21301;43.626;10.580;2023-06-26T01:18:13;5.15;;;2.72;;
35128;SDS011;21301;43.626;10.580;2023-06-26T01:20:40;3.95;;;2.20;;
35128;SDS011;21301;43.626;10.580;2023-06-26T01:28:51;7.05;;;2.75;;
35128;SDS011;21301;43.626;10.580;2023-06-26T01:31:19;5.70;;;2.28;;
35128;SDS011;21301;43.626;10.580;2023-06-26T01:33:45;5.03;;;2.53;;
35128;SDS011;21301;43.626;10.580;2023-06-26T01:36:12;5.82;;;2.75;;
35128;SDS011;21301;43.626;10.580;2023-06-26T01:38:39;5.72;;;2.70;;
35128;SDS011;21301;43.626;10.580;2023-06-26T01:41:05;5.53;;;2.92;;
35128;SDS011;21301;43.626;10.580;2023-06-26T01:46:18;7.05;;;2.75;;
35128;SDS011;21301;43.626;10.580;2023-06-26T01:49:03;5.32;;;2.90;;
35128;SDS011;21301;43.626;10.580;2023-06-26T01:54:55;5.18;;;3.05;;
35128;SDS011;21301;43.626;10.580;2023-06-26T01:57:56;4.68;;;2.80;;
35128;SDS011;21301;43.626;10.580;2023-06-26T02:00:26;8.48;;;2.85;;
35128;SDS011;21301;43.626;10.580;2023-06-26T02:02:52;8.38;;;2.83;;
35128;SDS011;21301;43.626;10.580;2023-06-26T02:05:19;8.13;;;3.33;;
35128;SDS011;21301;43.626;10.580;2023-06-26T02:07:45;7.65;;;3.15;;
35128;SDS011;21301;43.626;10.580;2023-06-26T02:10:11;6.70;;;3.30;;
35128;SDS011;21301;43.626;10.580;2023-06-26T02:12:37;6.82;;;3.22;;
35128;SDS011;21301;43.626;10.580;2023-06-26T02:15:04;6.85;;;2.97;;
35128;SDS011;21301;43.626;10.580;2023-06-26T02:17:32;5.80;;;2.95;;
35128;SDS011;21301;43.626;10.580;2023-06-26T02:19:57;5.60;;;2.88;;
35128;SDS011;21301;43.626;10.580;2023-06-26T02:22:24;13.57;;;3.53;;
35128;SDS011;21301;43.626;10.580;2023-06-26T02:24:50;5.90;;;3.30;;
35128;SDS011;21301;43.626;10.580;2023-06-26T02:27:16;7.95;;;3.38;;
35128;SDS011;21301;43.626;10.580;2023-06-26T02:29:43;6.00;;;3.20;;
35128;SDS011;21301;43.626;10.580;2023-06-26T02:32:10;6.97;;;3.50;;
35128;SDS011;21301;43.626;10.580;2023-06-26T02:34:39;7.68;;;3.13;;
35128;SDS011;21301;43.626;10.580;2023-06-26T02:37:07;7.72;;;3.42;;
35128;SDS011;21301;43.626;10.580;2023-06-26T02:39:34;5.85;;;3.00;;
35128;SDS011;21301;43.626;10.580;2023-06-26T02:42:08;6.07;;;3.17;;
35128;SDS011;21301;43.626;10.580;2023-06-26T02:44:35;6.35;;;3.40;;
35128;SDS011;21301;43.626;10.580;2023-06-26T02:47:01;6.75;;;3.20;;
35128;SDS011;21301;43.626;10.580;2023-06-26T02:49:27;4.65;;;2.60;;
35128;SDS011;21301;43.626;10.580;2023-06-26T02:51:52;6.63;;;3.05;;
35128;SDS011;21301;43.626;10.580;2023-06-26T02:54:25;7.53;;;3.33;;
35128;SDS011;21301;43.626;10.580;2023-06-26T02:56:57;5.60;;;3.22;;
35128;SDS011;21301;43.626;10.580;2023-06-26T02:59:30;5.20;;;2.95;;
35128;SDS011;21301;43.626;10.580;2023-06-26T03:01:56;5.93;;;3.13;;
35128;SDS011;21301;43.626;10.580;2023-06-26T03:04:30;5.53;;;3.08;;
35128;SDS011;21301;43.626;10.580;2023-06-26T03:07:02;9.98;;;3.15;;
35128;SDS011;21301;43.626;10.580;2023-06-26T03:09:28;6.63;;;3.08;;
35128;SDS011;21301;43.626;10.580;2023-06-26T03:11:56;5.55;;;2.60;;
35128;SDS011;21301;43.626;10.580;2023-06-26T03:14:22;5.10;;;2.85;;
35128;SDS011;21301;43.626;10.580;2023-06-26T03:16:49;6.68;;;3.20;;
35128;SDS011;21301;43.626;10.580;2023-06-26T03:19:18;5.70;;;2.78;;
35128;SDS011;21301;43.626;10.580;2023-06-26T03:22:07;7.03;;;3.40;;
35128;SDS011;21301;43.626;10.580;2023-06-26T03:24:35;6.00;;;3.42;;
35128;SDS011;21301;43.626;10.580;2023-06-26T03:27:02;6.05;;;3.15;;
35128;SDS011;21301;43.626;10.580;2023-06-26T03:29:28;5.40;;;3.08;;
35128;SDS011;21301;43.626;10.580;2023-06-26T03:31:56;5.22;;;3.00;;
35128;SDS011;21301;43.626;10.580;2023-06-26T03:34:23;5.75;;;2.92;;
35128;SDS011;21301;43.626;10.580;2023-06-26T03:37:02;5.68;;;3.50;;
35128;SDS011;21301;43.626;10.580;2023-06-26T03:39:30;5.93;;;3.33;;
35128;SDS011;21301;43.626;10.580;2023-06-26T03:41:58;6.30;;;3.20;;
35128;SDS011;21301;43.626;10.580;2023-06-26T03:44:30;7.38;;;3.60;;
35128;SDS011;21301;43.626;10.580;2023-06-26T03:46:56;6.22;;;2.90;;
35128;SDS011;21301;43.626;10.580;2023-06-26T03:49:24;6.47;;;3.22;;
35128;SDS011;21301;43.626;10.580;2023-06-26T03:51:51;5.28;;;3.05;;
35128;SDS011;21301;43.626;10.580;2023-06-26T03:54:21;6.97;;;3.20;;
35128;SDS011;21301;43.626;10.580;2023-06-26T03:56:50;7.47;;;2.90;;
35128;SDS011;21301;43.626;10.580;2023-06-26T03:59:20;5.28;;;3.05;;
35128;SDS011;21301;43.626;10.580;2023-06-26T04:01:48;10.75;;;3.50;;
35128;SDS011;21301;43.626;10.580;2023-06-26T04:04:13;6.07;;;3.10;;
35128;SDS011;21301;43.626;10.580;2023-06-26T04:06:39;6.10;;;3.17;;
35128;SDS011;21301;43.626;10.580;2023-06-26T04:09:08;5.90;;;2.95;;
35128;SDS011;21301;43.626;10.580;2023-06-26T04:11:35;10.50;;;3.42;;
35128;SDS011;21301;43.626;10.580;2023-06-26T04:14:02;6.47;;;3.00;;
35128;SDS011;21301;43.626;10.580;2023-06-26T04:16:28;11.15;;;2.90;;
35128;SDS011;21301;43.626;10.580;2023-06-26T04:18:56;8.63;;;3.90;;
35128;SDS011;21301;43.626;10.580;2023-06-26T04:21:23;6.88;;;3.75;;
35128;SDS011;21301;43.626;10.580;2023-06-26T04:23:52;5.70;;;3.40;;
35128;SDS011;21301;43.626;10.580;2023-06-26T04:26:21;6.43;;;3.00;;
35128;SDS011;21301;43.626;10.580;2023-06-26T04:28:48;6.82;;;3.38;;
35128;SDS011;21301;43.626;10.580;2023-06-26T04:31:15;6.43;;;2.72;;
35128;SDS011;21301;43.626;10.580;2023-06-26T04:33:41;6.05;;;3.65;;
35128;SDS011;21301;43.626;10.580;2023-06-26T04:36:07;6.20;;;3.10;;
35128;SDS011;21301;43.626;10.580;2023-06-26T04:38:34;10.07;;;4.03;;
35128;SDS011;21301;43.626;10.580;2023-06-26T04:41:04;10.68;;;3.58;;
35128;SDS011;21301;43.626;10.580;2023-06-26T04:43:30;7.40;;;2.85;;
35128;SDS011;21301;43.626;10.580;2023-06-26T04:45:56;5.88;;;2.95;;
35128;SDS011;21301;43.626;10.580;2023-06-26T04:48:24;5.95;;;2.92;;
35128;SDS011;21301;43.626;10.580;2023-06-26T04:50:53;6.28;;;2.83;;
35128;SDS011;21301;43.626;10.580;2023-06-26T04:53:22;5.95;;;2.65;;
35128;SDS011;21301;43.626;10.580;2023-06-26T04:55:50;6.78;;;3.47;;
35128;SDS011;21301;43.626;10.580;2023-06-26T04:58:16;5.25;;;3.20;;
35128;SDS011;21301;43.626;10.580;2023-06-26T05:00:49;6.45;;;2.97;;
35128;SDS011;21301;43.626;10.580;2023-06-26T05:03:18;5.57;;;3.28;;
35128;SDS011;21301;43.626;10.580;2023-06-26T05:05:46;5.15;;;2.75;;
35128;SDS011;21301;43.626;10.580;2023-06-26T05:08:24;6.40;;;3.38;;
35128;SDS011;21301;43.626;10.580;2023-06-26T05:10:57;7.85;;;3.55;;
35128;SDS011;21301;43.626;10.580;2023-06-26T05:13:29;15.77;;;3.72;;
35128;SDS011;21301;43.626;10.580;2023-06-26T05:15:56;6.40;;;2.75;;
35128;SDS011;21301;43.626;10.580;2023-06-26T05:18:35;8.32;;;3.72;;
35128;SDS011;21301;43.626;10.580;2023-06-26T05:21:08;5.93;;;2.92;;
35128;SDS011;21301;43.626;10.580;2023-06-26T05:23:34;7.55;;;3.35;;
35128;SDS011;21301;43.626;10.580;2023-06-26T05:26:02;6.38;;;3.55;;
35128;SDS011;21301;43.626;10.580;2023-06-26T05:28:30;7.63;;;4.10;;
35128;SDS011;21301;43.626;10.580;2023-06-26T05:30:58;6.97;;;3.22;;
35128;SDS011;21301;43.626;10.580;2023-06-26T05:33:28;7.63;;;3.95;;
35128;SDS011;21301;43.626;10.580;2023-06-26T05:35:57;6.35;;;3.25;;
35128;SDS011;21301;43.626;10.580;2023-06-26T05:38:28;7.18;;;4.07;;
35128;SDS011;21301;43.626;10.580;2023-06-26T05:40:59;5.63;;;3.63;;
35128;SDS011;21301;43.626;10.580;2023-06-26T05:43:28;9.50;;;3.97;;
35128;SDS011;21301;43.626;10.580;2023-06-26T05:45:56;7.90;;;3.78;;
35128;SDS011;21301;43.626;10.580;2023-06-26T05:48:29;8.48;;;4.45;;
35128;SDS011;21301;43.626;10.580;2023-06-26T05:51:00;6.68;;;4.07;;
35128;SDS011;21301;43.626;10.580;2023-06-26T05:53:29;7.00;;;3.80;;
35128;SDS011;21301;43.626;10.580;2023-06-26T05:55:55;7.68;;;3.60;;
35128;SDS011;21301;43.626;10.580;2023-06-26T05:58:23;8.18;;;3.72;;
35128;SDS011;21301;43.626;10.580;2023-06-26T06:00:51;6.07;;;4.00;;
35128;SDS011;21301;43.626;10.580;2023-06-26T06:03:19;6.00;;;3.70;;
35128;SDS011;21301;43.626;10.580;2023-06-26T06:05:46;6.95;;;4.03;;
35128;SDS011;21301;43.626;10.580;2023-06-26T06:08:18;8.60;;;4.72;;
35128;SDS011;21301;43.626;10.580;2023-06-26T06:10:48;10.75;;;4.68;;
35128;SDS011;21301;43.626;10.580;2023-06-26T06:13:16;7.38;;;4.88;;
35128;SDS011;21301;43.626;10.580;2023-06-26T06:15:43;9.18;;;3.60;;
35128;SDS011;21301;43.626;10.580;2023-06-26T06:18:10;8.77;;;3.20;;
35128;SDS011;21301;43.626;10.580;2023-06-26T06:20:35;10.68;;;3.70;;
35128;SDS011;21301;43.626;10.580;2023-06-26T06:23:03;6.85;;;3.88;;
35128;SDS011;21301;43.626;10.580;2023-06-26T06:25:30;8.95;;;4.57;;
35128;SDS011;21301;43.626;10.580;2023-06-26T06:27:56;9.52;;;3.90;;
35128;SDS011;21301;43.626;10.580;2023-06-26T06:30:49;11.75;;;4.70;;
35128;SDS011;21301;43.626;10.580;2023-06-26T06:33:17;9.32;;;3.92;;
35128;SDS011;21301;43.626;10.580;2023-06-26T06:35:45;11.13;;;5.38;;
35128;SDS011;21301;43.626;10.580;2023-06-26T06:38:11;10.60;;;5.13;;
35128;SDS011;21301;43.626;10.580;2023-06-26T06:40:43;10.50;;;3.97;;
35128;SDS011;21301;43.626;10.580;2023-06-26T06:43:11;8.68;;;4.93;;
35128;SDS011;21301;43.626;10.580;2023-06-26T06:45:47;8.68;;;5.38;;
35128;SDS011;21301;43.626;10.580;2023-06-26T06:48:13;8.85;;;5.03;;
35128;SDS011;21301;43.626;10.580;2023-06-26T06:50:46;9.55;;;4.75;;
35128;SDS011;21301;43.626;10.580;2023-06-26T06:53:15;6.75;;;4.07;;
35128;SDS011;21301;43.626;10.580;2023-06-26T06:55:43;9.57;;;4.03;;
35128;SDS011;21301;43.626;10.580;2023-06-26T06:58:10;8.25;;;4.10;;
35128;SDS011;21301;43.626;10.580;2023-06-26T07:00:42;7.30;;;4.22;;
35128;SDS011;21301;43.626;10.580;2023-06-26T07:03:09;7.50;;;3.20;;
35128;SDS011;21301;43.626;10.580;2023-06-26T07:05:41;7.23;;;3.30;;
35128;SDS011;21301;43.626;10.580;2023-06-26T07:08:11;5.80;;;3.72;;
35128;SDS011;21301;43.626;10.580;2023-06-26T07:10:40;6.75;;;3.40;;
35128;SDS011;21301;43.626;10.580;2023-06-26T07:13:12;13.20;;;4.43;;
35128;SDS011;21301;43.626;10.580;2023-06-26T07:15:47;6.40;;;3.58;;
35128;SDS011;21301;43.626;10.580;2023-06-26T07:18:35;5.82;;;3.53;;
35128;SDS011;21301;43.626;10.580;2023-06-26T07:21:06;10.88;;;3.63;;
35128;SDS011;21301;43.626;10.580;2023-06-26T07:23:39;12.50;;;3.15;;
35128;SDS011;21301;43.626;10.580;2023-06-26T07:26:05;8.60;;;3.67;;
35128;SDS011;21301;43.626;10.580;2023-06-26T07:28:36;7.32;;;3.38;;
35128;SDS011;21301;43.626;10.580;2023-06-26T07:31:03;6.03;;;3.17;;
35128;SDS011;21301;43.626;10.580;2023-06-26T07:34:00;5.68;;;3.45;;
35128;SDS011;21301;43.626;10.580;2023-06-26T07:36:30;7.57;;;3.33;;
35128;SDS011;21301;43.626;10.580;2023-06-26T07:39:27;6.82;;;3.75;;
35128;SDS011;21301;43.626;10.580;2023-06-26T07:42:21;6.88;;;3.70;;
35128;SDS011;21301;43.626;10.580;2023-06-26T07:44:53;8.45;;;3.88;;
35128;SDS011;21301;43.626;10.580;2023-06-26T07:47:37;5.30;;;3.70;;
35128;SDS011;21301;43.626;10.580;2023-06-26T07:50:12;7.78;;;3.42;;
35128;SDS011;21301;43.626;10.580;2023-06-26T07:52:50;9.18;;;3.60;;
35128;SDS011;21301;43.626;10.580;2023-06-26T07:55:23;5.75;;;3.00;;
35128;SDS011;21301;43.626;10.580;2023-06-26T07:57:59;9.02;;;3.25;;
35128;SDS011;21301;43.626;10.580;2023-06-26T08:00:36;7.15;;;3.08;;
35128;SDS011;21301;43.626;10.580;2023-06-26T08:03:02;6.38;;;3.60;;
35128;SDS011;21301;43.626;10.580;2023-06-26T08:05:37;5.25;;;3.15;;
35128;SDS011;21301;43.626;10.580;2023-06-26T08:08:13;7.57;;;2.97;;
35128;SDS011;21301;43.626;10.580;2023-06-26T08:10:41;9.05;;;3.63;;
35128;SDS011;21301;43.626;10.580;2023-06-26T08:13:35;7.40;;;3.67;;
35128;SDS011;21301;43.626;10.580;2023-06-26T08:16:11;5.78;;;3.33;;
35128;SDS011;21301;43.626;10.580;2023-06-26T08:18:44;16.50;;;4.03;;
35128;SDS011;21301;43.626;10.580;2023-06-26T08:21:16;9.50;;;3.65;;
35128;SDS011;21301;43.626;10.580;2023-06-26T08:24:05;7.53;;;3.80;;
35128;SDS011;21301;43.626;10.580;2023-06-26T08:26:35;7.68;;;3.50;;
35128;SDS011;21301;43.626;10.580;2023-06-26T08:29:06;7.22;;;3.42;;
35128;SDS011;21301;43.626;10.580;2023-06-26T08:34:05;8.80;;;3.47;;
35128;SDS011;21301;43.626;10.580;2023-06-26T08:36:40;10.35;;;3.97;;
35128;SDS011;21301;43.626;10.580;2023-06-26T08:39:11;8.73;;;3.47;;
35128;SDS011;21301;43.626;10.580;2023-06-26T08:41:51;11.68;;;3.08;;
35128;SDS011;21301;43.626;10.580;2023-06-26T08:44:21;6.43;;;3.83;;
35128;SDS011;21301;43.626;10.580;2023-06-26T08:55:34;8.18;;;2.97;;
35128;SDS011;21301;43.626;10.580;2023-06-26T08:58:11;6.35;;;3.15;;
35128;SDS011;21301;43.626;10.580;2023-06-26T09:01:08;5.53;;;3.28;;
35128;SDS011;21301;43.626;10.580;2023-06-26T09:04:21;5.30;;;3.00;;
35128;SDS011;21301;43.626;10.580;2023-06-26T09:06:48;5.55;;;2.95;;
35128;SDS011;21301;43.626;10.580;2023-06-26T09:09:15;8.13;;;3.67;;
35128;SDS011;21301;43.626;10.580;2023-06-26T09:11:48;4.60;;;2.83;;
35128;SDS011;21301;43.626;10.580;2023-06-26T09:14:43;10.27;;;4.00;;
35128;SDS011;21301;43.626;10.580;2023-06-26T09:17:15;7.28;;;3.25;;
35128;SDS011;21301;43.626;10.580;2023-06-26T09:19:41;7.10;;;3.78;;
35128;SDS011;21301;43.626;10.580;2023-06-26T09:22:43;5.60;;;3.65;;
35128;SDS011;21301;43.626;10.580;2023-06-26T09:25:25;5.57;;;3.22;;
35128;SDS011;21301;43.626;10.580;2023-06-26T09:27:52;5.85;;;3.38;;
35128;SDS011;21301;43.626;10.580;2023-06-26T09:30:25;7.95;;;3.65;;
35128;SDS011;21301;43.626;10.580;2023-06-26T09:32:57;8.60;;;3.67;;
35128;SDS011;21301;43.626;10.580;2023-06-26T09:36:18;6.32;;;3.67;;
35128;SDS011;21301;43.626;10.580;2023-06-26T09:38:50;6.50;;;3.90;;
35128;SDS011;21301;43.626;10.580;2023-06-26T09:41:35;12.15;;;3.40;;
35128;SDS011;21301;43.626;10.580;2023-06-26T09:44:19;8.13;;;3.95;;
35128;SDS011;21301;43.626;10.580;2023-06-26T09:47:05;9.27;;;4.33;;
35128;SDS011;21301;43.626;10.580;2023-06-26T09:49:57;7.43;;;3.90;;
35128;SDS011;21301;43.626;10.580;2023-06-26T09:52:26;8.15;;;4.13;;
35128;SDS011;21301;43.626;10.580;2023-06-26T09:57:37;6.88;;;3.35;;
35128;SDS011;21301;43.626;10.580;2023-06-26T10:00:08;8.65;;;3.70;;
35128;SDS011;21301;43.626;10.580;2023-06-26T10:02:40;10.27;;;4.35;;
35128;SDS011;21301;43.626;10.580;2023-06-26T10:05:29;5.72;;;3.50;;
35128;SDS011;21301;43.626;10.580;2023-06-26T10:08:19;8.50;;;3.67;;
35128;SDS011;21301;43.626;10.580;2023-06-26T10:10:50;5.45;;;3.63;;
35128;SDS011;21301;43.626;10.580;2023-06-26T10:13:27;6.72;;;4.00;;
35128;SDS011;21301;43.626;10.580;2023-06-26T10:15:59;6.70;;;4.20;;
35128;SDS011;21301;43.626;10.580;2023-06-26T10:18:33;7.50;;;4.07;;
35128;SDS011;21301;43.626;10.580;2023-06-26T10:21:05;7.88;;;4.03;;
35128;SDS011;21301;43.626;10.580;2023-06-26T10:24:26;7.85;;;3.88;;
35128;SDS011;21301;43.626;10.580;2023-06-26T10:27:19;8.15;;;4.03;;
35128;SDS011;21301;43.626;10.580;2023-06-26T10:29:54;20.60;;;3.92;;
35128;SDS011;21301;43.626;10.580;2023-06-26T10:32:24;8.27;;;3.80;;
35128;SDS011;21301;43.626;10.580;2023-06-26T10:34:57;7.97;;;3.83;;
35128;SDS011;21301;43.626;10.580;2023-06-26T10:43:29;6.57;;;3.78;;
35128;SDS011;21301;43.626;10.580;2023-06-26T10:45:56;7.07;;;3.45;;
35128;SDS011;21301;43.626;10.580;2023-06-26T10:48:28;8.90;;;3.80;;
35128;SDS011;21301;43.626;10.580;2023-06-26T10:51:03;7.65;;;4.03;;
35128;SDS011;21301;43.626;10.580;2023-06-26T10:53:55;7.93;;;3.97;;
35128;SDS011;21301;43.626;10.580;2023-06-26T10:56:42;7.07;;;3.47;;
35128;SDS011;21301;43.626;10.580;2023-06-26T10:59:21;6.13;;;3.33;;
35128;SDS011;21301;43.626;10.580;2023-06-26T11:02:20;7.20;;;3.72;;
35128;SDS011;21301;43.626;10.580;2023-06-26T11:05:11;9.02;;;3.92;;
35128;SDS011;21301;43.626;10.580;2023-06-26T11:08:06;8.52;;;4.18;;
35128;SDS011;21301;43.626;10.580;2023-06-26T11:10:48;7.70;;;3.42;;
35128;SDS011;21301;43.626;10.580;2023-06-26T11:13:23;9.55;;;3.60;;
35128;SDS011;21301;43.626;10.580;2023-06-26T11:15:53;5.55;;;3.47;;
35128;SDS011;21301;43.626;10.580;2023-06-26T11:18:28;5.95;;;3.30;;
35128;SDS011;21301;43.626;10.580;2023-06-26T11:21:08;6.80;;;3.72;;
35128;SDS011;21301;43.626;10.580;2023-06-26T11:23:45;5.40;;;3.33;;
35128;SDS011;21301;43.626;10.580;2023-06-26T11:26:18;6.97;;;3.63;;
35128;SDS011;21301;43.626;10.580;2023-06-26T11:28:56;5.68;;;3.33;;
35128;SDS011;21301;43.626;10.580;2023-06-26T11:31:31;5.38;;;3.40;;
35128;SDS011;21301;43.626;10.580;2023-06-26T11:34:04;7.13;;;3.60;;
35128;SDS011;21301;43.626;10.580;2023-06-26T11:36:39;6.10;;;3.70;;
35128;SDS011;21301;43.626;10.580;2023-06-26T11:39:09;8.55;;;3.40;;
35128;SDS011;21301;43.626;10.580;2023-06-26T11:42:13;4.70;;;2.95;;
35128;SDS011;21301;43.626;10.580;2023-06-26T11:44:58;5.60;;;3.53;;
35128;SDS011;21301;43.626;10.580;2023-06-26T11:47:29;7.47;;;3.78;;
35128;SDS011;21301;43.626;10.580;2023-06-26T11:50:14;4.95;;;3.20;;
35128;SDS011;21301;43.626;10.580;2023-06-26T11:52:45;8.02;;;4.00;;
35128;SDS011;21301;43.626;10.580;2023-06-26T11:55:22;5.70;;;3.60;;
35128;SDS011;21301;43.626;10.580;2023-06-26T11:57:50;7.22;;;3.05;;
35128;SDS011;21301;43.626;10.580;2023-06-26T12:00:48;7.35;;;3.17;;
35128;SDS011;21301;43.626;10.580;2023-06-26T12:03:22;6.60;;;3.97;;
35128;SDS011;21301;43.626;10.580;2023-06-26T12:06:09;6.85;;;3.88;;
35128;SDS011;21301;43.626;10.580;2023-06-26T12:08:40;6.93;;;3.30;;
35128;SDS011;21301;43.626;10.580;2023-06-26T12:11:33;5.30;;;3.58;;
35128;SDS011;21301;43.626;10.580;2023-06-26T12:14:07;6.05;;;3.88;;
35128;SDS011;21301;43.626;10.580;2023-06-26T12:17:08;8.55;;;4.00;;
35128;SDS011;21301;43.626;10.580;2023-06-26T12:20:00;5.82;;;3.65;;
35128;SDS011;21301;43.626;10.580;2023-06-26T12:22:39;7.30;;;3.75;;
35128;SDS011;21301;43.626;10.580;2023-06-26T12:25:09;7.95;;;3.60;;
35128;SDS011;21301;43.626;10.580;2023-06-26T12:28:18;5.40;;;3.33;;
35128;SDS011;21301;43.626;10.580;2023-06-26T12:31:20;9.18;;;4.05;;
35128;SDS011;21301;43.626;10.580;2023-06-26T12:34:36;5.53;;;3.30;;
35128;SDS011;21301;43.626;10.580;2023-06-26T12:37:36;5.83;;;3.77;;
35128;SDS011;21301;43.626;10.580;2023-06-26T12:40:19;7.80;;;4.00;;
35128;SDS011;21301;43.626;10.580;2023-06-26T12:42:49;10.27;;;3.95;;
35128;SDS011;21301;43.626;10.580;2023-06-26T12:45:27;7.65;;;3.65;;
35128;SDS011;21301;43.626;10.580;2023-06-26T12:48:15;7.82;;;4.07;;
35128;SDS011;21301;43.626;10.580;2023-06-26T12:51:18;5.75;;;3.63;;
35128;SDS011;21301;43.626;10.580;2023-06-26T12:54:27;7.10;;;3.70;;
35128;SDS011;21301;43.626;10.580;2023-06-26T12:56:53;7.38;;;3.67;;
35128;SDS011;21301;43.626;10.580;2023-06-26T12:59:50;7.13;;;3.58;;
35128;SDS011;21301;43.626;10.580;2023-06-26T13:02:17;6.00;;;3.50;;
35128;SDS011;21301;43.626;10.580;2023-06-26T13:05:08;6.45;;;3.83;;
35128;SDS011;21301;43.626;10.580;2023-06-26T13:08:17;7.03;;;3.45;;
35128;SDS011;21301;43.626;10.580;2023-06-26T13:10:46;5.10;;;3.00;;
35128;SDS011;21301;43.626;10.580;2023-06-26T13:13:29;5.93;;;3.53;;
35128;SDS011;21301;43.626;10.580;2023-06-26T13:16:27;7.68;;;3.55;;
35128;SDS011;21301;43.626;10.580;2023-06-26T13:19:21;5.90;;;3.40;;
35128;SDS011;21301;43.626;10.580;2023-06-26T13:22:34;6.72;;;3.33;;
35128;SDS011;21301;43.626;10.580;2023-06-26T13:25:29;9.18;;;3.63;;
35128;SDS011;21301;43.626;10.580;2023-06-26T13:28:04;8.82;;;3.85;;
35128;SDS011;21301;43.626;10.580;2023-06-26T13:31:00;6.40;;;3.63;;
35128;SDS011;21301;43.626;10.580;2023-06-26T13:33:32;5.28;;;3.47;;
35128;SDS011;21301;43.626;10.580;2023-06-26T13:36:34;6.70;;;4.00;;
35128;SDS011;21301;43.626;10.580;2023-06-26T13:39:07;7.72;;;3.83;;
35128;SDS011;21301;43.626;10.580;2023-06-26T13:42:00;6.00;;;3.53;;
35128;SDS011;21301;43.626;10.580;2023-06-26T13:44:34;6.63;;;3.70;;
35128;SDS011;21301;43.626;10.580;2023-06-26T13:50:12;8.40;;;3.55;;
35128;SDS011;21301;43.626;10.580;2023-06-26T13:52:45;7.65;;;3.78;;
35128;SDS011;21301;43.626;10.580;2023-06-26T13:55:52;7.50;;;3.47;;
35128;SDS011;21301;43.626;10.580;2023-06-26T13:58:38;8.20;;;3.63;;
35128;SDS011;21301;43.626;10.580;2023-06-26T14:01:31;7.05;;;4.25;;
35128;SDS011;21301;43.626;10.580;2023-06-26T14:04:15;7.28;;;4.00;;
35128;SDS011;21301;43.626;10.580;2023-06-26T14:07:07;8.20;;;4.30;;
35128;SDS011;21301;43.626;10.580;2023-06-26T14:09:58;5.80;;;3.65;;
35128;SDS011;21301;43.626;10.580;2023-06-26T14:13:04;7.47;;;3.83;;
35128;SDS011;21301;43.626;10.580;2023-06-26T14:15:51;6.90;;;3.25;;
35128;SDS011;21301;43.626;10.580;2023-06-26T14:18:54;7.97;;;4.32;;
35128;SDS011;21301;43.626;10.580;2023-06-26T14:21:20;7.63;;;3.70;;
35128;SDS011;21301;43.626;10.580;2023-06-26T14:23:48;7.07;;;3.42;;
35128;SDS011;21301;43.626;10.580;2023-06-26T14:26:43;10.60;;;4.32;;
35128;SDS011;21301;43.626;10.580;2023-06-26T14:29:49;11.20;;;3.67;;
35128;SDS011;21301;43.626;10.580;2023-06-26T14:32:47;10.07;;;3.47;;
35128;SDS011;21301;43.626;10.580;2023-06-26T14:35:50;6.28;;;4.00;;
35128;SDS011;21301;43.626;10.580;2023-06-26T14:38:16;6.38;;;3.80;;
35128;SDS011;21301;43.626;10.580;2023-06-26T14:44:05;7.82;;;4.18;;
35128;SDS011;21301;43.626;10.580;2023-06-26T14:49:38;8.57;;;4.40;;
35128;SDS011;21301;43.626;10.580;2023-06-26T14:52:35;6.95;;;3.80;;
35128;SDS011;21301;43.626;10.580;2023-06-26T14:55:08;12.18;;;3.92;;
35128;SDS011;21301;43.626;10.580;2023-06-26T14:57:43;6.57;;;3.63;;
35128;SDS011;21301;43.626;10.580;2023-06-26T15:00:14;6.97;;;3.65;;
35128;SDS011;21301;43.626;10.580;2023-06-26T15:02:42;5.70;;;3.20;;
35128;SDS011;21301;43.626;10.580;2023-06-26T15:05:39;5.95;;;3.58;;
35128;SDS011;21301;43.626;10.580;2023-06-26T15:09:23;7.75;;;3.78;;
35128;SDS011;21301;43.626;10.580;2023-06-26T15:16:17;6.72;;;3.60;;
35128;SDS011;21301;43.626;10.580;2023-06-26T15:19:48;9.73;;;3.88;;
35128;SDS011;21301;43.626;10.580;2023-06-26T15:22:48;7.72;;;3.92;;
35128;SDS011;21301;43.626;10.580;2023-06-26T15:25:20;9.95;;;4.35;;
35128;SDS011;21301;43.626;10.580;2023-06-26T15:27:57;6.68;;;3.90;;
35128;SDS011;21301;43.626;10.580;2023-06-26T15:31:03;6.85;;;3.20;;
35128;SDS011;21301;43.626;10.580;2023-06-26T15:34:29;7.78;;;3.65;;
35128;SDS011;21301;43.626;10.580;2023-06-26T15:37:05;9.25;;;3.78;;
35128;SDS011;21301;43.626;10.580;2023-06-26T15:39:51;7.95;;;3.80;;
35128;SDS011;21301;43.626;10.580;2023-06-26T15:42:49;5.55;;;3.13;;
35128;SDS011;21301;43.626;10.580;2023-06-26T15:46:01;6.22;;;3.55;;
35128;SDS011;21301;43.626;10.580;2023-06-26T15:51:25;6.72;;;3.38;;
35128;SDS011;21301;43.626;10.580;2023-06-26T15:57:33;8.60;;;4.00;;
35128;SDS011;21301;43.626;10.580;2023-06-26T16:00:24;13.43;;;3.85;;
35128;SDS011;21301;43.626;10.580;2023-06-26T16:03:33;8.05;;;3.38;;
35128;SDS011;21301;43.626;10.580;2023-06-26T16:06:14;5.90;;;3.53;;
35128;SDS011;21301;43.626;10.580;2023-06-26T16:08:49;9.43;;;3.88;;
35128;SDS011;21301;43.626;10.580;2023-06-26T16:11:50;7.30;;;3.40;;
35128;SDS011;21301;43.626;10.580;2023-06-26T16:14:19;10.13;;;4.15;;
35128;SDS011;21301;43.626;10.580;2023-06-26T16:17:14;6.50;;;3.95;;
35128;SDS011;21301;43.626;10.580;2023-06-26T16:20:12;7.65;;;3.80;;